Time;durP1;ratioP1;P1;durP2;ratioP2;P2;SDS_P1;SDS_P2;PMS_P1;PMS_P2;Temp;Humidity;BMP_temperature;BMP_pressure;BME280_temperature;BME280_humidity;BME280_pressure;Samples;Min_cycle;Max_cycle;Signal;HPM_P1;HPM_P2
2023/01/09 00:00:22;;;;;;;10.30;9.40;;;7.50;99.90;;;;;;6122803;23;20525;-68
2023/01/09 00:02:50;;;;;;;9.90;9.10;;;7.50;99.90;;;;;;6148638;23;20267;-68
2023/01/09 00:05:19;;;;;;;9.40;8.60;;;7.60;99.90;;;;;;6147629;23;20213;-68
2023/01/09 00:07:46;;;;;;;9.77;8.98;;;7.60;99.90;;;;;;6141495;23;20219;-68
2023/01/09 00:10:14;;;;;;;8.52;7.82;;;7.60;99.90;;;;;;6148119;23;20275;-68
2023/01/09 00:12:41;;;;;;;8.95;8.25;;;7.60;99.90;;;;;;6134788;23;20648;-68
2023/01/09 00:15:09;;;;;;;8.48;7.78;;;7.60;99.90;;;;;;6144256;23;20763;-68
2023/01/09 00:17:36;;;;;;;9.15;8.35;;;7.60;99.90;;;;;;6148093;23;20270;-68
2023/01/09 00:20:06;;;;;;;8.23;7.53;;;7.60;99.90;;;;;;6146912;23;20660;-68
2023/01/09 00:22:33;;;;;;;9.07;8.27;;;7.60;99.90;;;;;;6146105;23;20615;-68
2023/01/09 00:25:00;;;;;;;9.10;8.40;;;7.60;99.90;;;;;;6127726;23;20703;-68
2023/01/09 00:27:30;;;;;;;7.85;7.15;;;7.60;99.90;;;;;;6143888;23;20346;-68
2023/01/09 00:29:58;;;;;;;8.63;7.82;;;7.60;99.90;;;;;;6120134;23;20194;-68
2023/01/09 00:34:59;;;;;;;8.60;7.85;;;7.70;99.90;;;;;;6124736;23;20219;-68
2023/01/09 00:37:27;;;;;;;7.53;6.93;;;7.70;99.90;;;;;;6141691;23;20656;-68
2023/01/09 00:39:54;;;;;;;8.55;7.25;;;7.70;99.90;;;;;;6148850;23;20259;-68
2023/01/09 00:42:26;;;;;;;7.20;6.60;;;7.70;99.90;;;;;;6142420;23;20222;-68
2023/01/09 00:44:57;;;;;;;7.65;7.05;;;7.70;99.90;;;;;;6140828;23;20290;-68
2023/01/09 00:47:28;;;;;;;6.97;6.43;;;7.60;99.90;;;;;;6122903;23;20219;-68
2023/01/09 00:49:58;;;;;;;6.32;5.82;;;7.70;99.90;;;;;;6134509;23;20228;-68
2023/01/09 00:52:25;;;;;;;6.45;5.95;;;7.70;99.90;;;;;;6127149;23;20188;-68
2023/01/09 00:54:54;;;;;;;5.65;5.25;;;7.70;99.90;;;;;;6128114;23;20304;-68
2023/01/09 00:57:20;;;;;;;5.60;5.20;;;7.70;99.90;;;;;;6145682;23;20725;-68
2023/01/09 00:59:48;;;;;;;4.70;4.30;;;7.60;99.90;;;;;;6122037;23;20765;-68
2023/01/09 01:02:15;;;;;;;4.60;4.20;;;7.60;99.90;;;;;;6127290;23;20196;-68
2023/01/09 01:07:38;;;;;;;3.83;3.53;;;7.70;99.90;;;;;;6121784;23;20186;-68
2023/01/09 01:10:11;;;;;;;3.42;3.13;;;7.70;99.90;;;;;;6122013;23;20187;-68
2023/01/09 01:12:38;;;;;;;3.20;2.90;;;7.70;99.90;;;;;;6128949;23;20650;-68
2023/01/09 01:15:07;;;;;;;2.55;2.35;;;7.70;99.90;;;;;;6130219;23;20215;-68
2023/01/09 01:17:35;;;;;;;2.35;2.15;;;7.80;99.90;;;;;;6121399;23;20212;-68
2023/01/09 01:20:02;;;;;;;1.60;1.50;;;7.70;99.90;;;;;;6132728;23;20220;-68
2023/01/09 01:22:29;;;;;;;1.65;1.55;;;7.70;99.90;;;;;;6138544;23;20522;-68
2023/01/09 01:24:56;;;;;;;1.50;1.40;;;7.70;99.90;;;;;;6134822;23;20592;-68
2023/01/09 01:27:25;;;;;;;1.40;1.30;;;7.70;99.90;;;;;;6148995;23;20658;-68
2023/01/09 01:29:52;;;;;;;1.30;1.20;;;7.80;99.90;;;;;;6139388;23;20193;-68
2023/01/09 01:32:19;;;;;;;1.27;1.17;;;7.80;99.90;;;;;;6140427;23;20279;-68
2023/01/09 01:34:46;;;;;;;1.30;1.20;;;7.80;99.90;;;;;;6144185;23;20299;-68
2023/01/09 01:37:13;;;;;;;1.02;1.00;;;7.80;99.90;;;;;;6148586;23;20271;-67
2023/01/09 01:39:40;;;;;;;1.02;0.93;;;7.80;99.90;;;;;;6148073;23;20718;-68
2023/01/09 01:42:07;;;;;;;0.98;0.98;;;7.80;99.90;;;;;;6129510;23;20246;-67
2023/01/09 01:45:11;;;;;;;1.27;1.10;;;7.90;99.90;;;;;;6130897;23;20296;-67
2023/01/09 01:47:44;;;;;;;0.93;0.90;;;7.90;99.90;;;;;;6130909;23;20231;-67
2023/01/09 01:50:16;;;;;;;1.45;0.88;;;7.80;99.90;;;;;;6124980;23;20219;-67
2023/01/09 01:52:47;;;;;;;1.00;0.80;;;7.80;99.90;;;;;;6144691;23;20184;-68
2023/01/09 01:55:15;;;;;;;1.05;0.95;;;7.80;99.90;;;;;;6148359;23;20665;-68
2023/01/09 01:57:48;;;;;;;1.17;1.00;;;7.80;99.90;;;;;;6147021;23;20196;-67
2023/01/09 02:00:16;;;;;;;0.88;0.88;;;7.80;99.90;;;;;;6136094;23;20704;-67
2023/01/09 02:02:45;;;;;;;1.50;0.90;;;7.90;99.90;;;;;;6123651;23;20192;-68
2023/01/09 02:05:12;;;;;;;0.90;0.90;;;7.90;99.90;;;;;;6144979;23;20208;-67
2023/01/09 02:07:40;;;;;;;1.10;0.95;;;7.80;99.90;;;;;;6147031;23;20196;-68
2023/01/09 02:10:08;;;;;;;1.00;0.90;;;7.90;99.90;;;;;;6133846;23;20683;-67
2023/01/09 02:12:34;;;;;;;0.70;0.70;;;7.90;99.90;;;;;;6130282;23;20529;-68
2023/01/09 02:15:06;;;;;;;1.00;1.00;;;7.80;99.90;;;;;;6147954;23;20248;-68
2023/01/09 02:17:57;;;;;;;0.88;0.88;;;7.90;99.90;;;;;;6148536;23;20727;-67
2023/01/09 02:20:40;;;;;;;0.73;0.70;;;7.90;99.90;;;;;;6138379;23;20225;-67
2023/01/09 02:23:49;;;;;;;0.70;0.70;;;7.90;99.90;;;;;;6127552;23;20193;-68
2023/01/09 02:26:47;;;;;;;0.60;0.60;;;7.90;99.90;;;;;;6141720;23;20268;-68
2023/01/09 02:29:50;;;;;;;0.98;0.85;;;7.90;99.90;;;;;;6130386;23;20645;-68
2023/01/09 02:32:32;;;;;;;0.85;0.85;;;7.90;99.90;;;;;;6137246;23;20615;-68
2023/01/09 02:35:11;;;;;;;0.60;0.60;;;7.90;99.90;;;;;;6148704;23;20211;-68
2023/01/09 02:37:48;;;;;;;0.70;0.70;;;7.90;99.90;;;;;;6148954;23;20188;-67
2023/01/09 02:40:23;;;;;;;0.70;0.70;;;7.90;99.90;;;;;;6136160;23;20226;-68
2023/01/09 02:42:51;;;;;;;0.70;0.60;;;7.90;99.90;;;;;;6125118;23;20178;-68
2023/01/09 02:45:18;;;;;;;0.80;0.75;;;7.90;99.90;;;;;;6120403;23;20586;-67
2023/01/09 02:47:47;;;;;;;0.75;0.75;;;7.90;99.90;;;;;;6120518;23;20200;-67
2023/01/09 02:50:18;;;;;;;0.70;0.65;;;7.90;99.90;;;;;;6135099;23;20227;-67
2023/01/09 02:53:10;;;;;;;0.80;0.60;;;7.90;99.90;;;;;;6146355;23;20180;-67
2023/01/09 02:55:54;;;;;;;1.38;0.68;;;7.90;99.90;;;;;;6132844;23;20285;-68
2023/01/09 02:58:36;;;;;;;0.77;0.70;;;7.90;99.90;;;;;;6123925;23;20205;-68
2023/01/09 03:01:19;;;;;;;0.60;0.60;;;7.90;99.90;;;;;;6139673;23;20652;-67
2023/01/09 03:03:52;;;;;;;1.58;0.70;;;7.90;99.90;;;;;;6136388;23;20249;-68
2023/01/09 03:06:24;;;;;;;0.60;0.60;;;7.90;99.90;;;;;;6148150;23;20201;-68
2023/01/09 03:08:54;;;;;;;0.70;0.60;;;7.90;99.90;;;;;;6145166;23;20671;-68
2023/01/09 03:11:22;;;;;;;2.30;0.90;;;7.90;99.90;;;;;;6141065;23;20192;-67
2023/01/09 03:13:51;;;;;;;0.60;0.60;;;7.90;99.90;;;;;;6119674;23;20295;-67
2023/01/09 03:16:23;;;;;;;0.70;0.70;;;7.90;99.90;;;;;;6139676;23;20232;-67
2023/01/09 03:18:52;;;;;;;0.90;0.70;;;7.90;99.90;;;;;;6139817;23;20276;-67
2023/01/09 03:21:20;;;;;;;0.60;0.50;;;8.00;99.90;;;;;;6129247;23;20189;-67
2023/01/09 03:23:50;;;;;;;0.73;0.55;;;8.00;99.90;;;;;;6147865;23;20763;-67
2023/01/09 03:26:17;;;;;;;0.60;0.50;;;8.00;99.90;;;;;;6146418;23;20241;-68
2023/01/09 03:28:44;;;;;;;0.82;0.70;;;8.10;99.90;;;;;;6126201;23;20280;-68
2023/01/09 03:31:12;;;;;;;0.57;0.52;;;8.10;99.90;;;;;;6143945;23;20609;-67
2023/01/09 03:33:39;;;;;;;0.50;0.50;;;8.10;99.90;;;;;;6147344;23;20238;-67
2023/01/09 03:36:09;;;;;;;0.50;0.50;;;8.10;99.90;;;;;;6149359;23;20192;-67
2023/01/09 03:38:36;;;;;;;0.65;0.65;;;8.10;99.90;;;;;;6134008;23;20267;-67
2023/01/09 03:41:04;;;;;;;0.63;0.45;;;8.10;99.90;;;;;;6133505;23;20223;-67
2023/01/09 03:43:31;;;;;;;1.38;0.60;;;8.10;99.90;;;;;;6148230;23;20236;-67
2023/01/09 03:45:59;;;;;;;0.70;0.55;;;8.10;99.90;;;;;;6150015;23;20195;-67
2023/01/09 03:48:26;;;;;;;1.00;0.80;;;8.10;99.90;;;;;;6134587;23;20587;-67
2023/01/09 03:50:55;;;;;;;0.60;0.60;;;8.10;99.90;;;;;;6134732;23;20372;-67
2023/01/09 03:53:24;;;;;;;0.65;0.57;;;8.10;99.90;;;;;;6138488;23;20807;-68
2023/01/09 03:55:55;;;;;;;0.65;0.60;;;8.00;99.90;;;;;;6132001;23;20192;-68
2023/01/09 03:58:22;;;;;;;0.60;0.60;;;8.00;99.90;;;;;;6134696;23;21691;-68
2023/01/09 04:00:50;;;;;;;0.50;0.40;;;7.80;99.90;;;;;;6133981;23;20220;-68
2023/01/09 04:03:19;;;;;;;0.68;0.50;;;7.70;99.90;;;;;;6132143;23;20295;-67
2023/01/09 04:05:47;;;;;;;0.70;0.50;;;7.50;99.90;;;;;;6133911;23;20278;-68
2023/01/09 04:08:14;;;;;;;3.72;0.70;;;7.30;99.90;;;;;;6133331;23;20222;-68
2023/01/09 04:10:46;;;;;;;0.50;0.50;;;7.10;99.90;;;;;;6146790;23;20646;-67
2023/01/09 04:13:13;;;;;;;0.50;0.40;;;7.00;99.90;;;;;;6135757;23;20282;-67
2023/01/09 04:15:40;;;;;;;0.70;0.40;;;6.80;99.90;;;;;;6146025;23;20187;-67
2023/01/09 04:18:07;;;;;;;0.60;0.40;;;6.80;99.90;;;;;;6136445;23;20708;-67
2023/01/09 04:20:35;;;;;;;0.50;0.40;;;6.70;99.90;;;;;;6137702;23;20314;-67
2023/01/09 04:23:02;;;;;;;1.02;0.50;;;6.60;99.90;;;;;;6143422;23;20182;-67
2023/01/09 04:25:29;;;;;;;0.60;0.50;;;6.50;99.90;;;;;;6126775;23;20187;-67
2023/01/09 04:27:57;;;;;;;0.52;0.40;;;6.40;99.90;;;;;;6126560;23;20195;-67
2023/01/09 04:30:25;;;;;;;0.60;0.50;;;6.40;99.90;;;;;;6141754;23;20666;-67
2023/01/09 04:32:52;;;;;;;0.70;0.50;;;6.40;99.90;;;;;;6139825;23;20773;-67
2023/01/09 04:35:19;;;;;;;0.60;0.55;;;6.40;99.90;;;;;;6150435;23;20265;-67
2023/01/09 04:37:46;;;;;;;1.23;0.50;;;6.40;99.90;;;;;;6135880;23;20270;-66
2023/01/09 04:40:17;;;;;;;1.63;0.57;;;6.40;99.90;;;;;;6135701;23;20246;-67
2023/01/09 04:42:44;;;;;;;0.73;0.47;;;6.40;99.90;;;;;;6132470;23;21527;-68
2023/01/09 04:45:14;;;;;;;0.80;0.40;;;6.40;99.90;;;;;;6132939;23;20213;-67
2023/01/09 04:47:42;;;;;;;0.90;0.50;;;6.40;99.90;;;;;;6146788;23;20194;-67
2023/01/09 04:50:11;;;;;;;1.63;0.50;;;6.40;99.90;;;;;;6134700;23;20567;-67
2023/01/09 04:52:38;;;;;;;0.70;0.60;;;6.40;99.90;;;;;;6124896;23;20183;-67
2023/01/09 04:55:06;;;;;;;0.95;0.60;;;6.40;99.90;;;;;;6122404;23;20208;-68
2023/01/09 04:57:33;;;;;;;1.00;0.50;;;6.40;99.90;;;;;;6123862;23;20683;-68
2023/01/09 05:00:00;;;;;;;0.88;0.47;;;6.40;99.90;;;;;;6147625;23;20221;-68
2023/01/09 05:02:28;;;;;;;1.15;0.60;;;6.50;99.90;;;;;;6147895;23;20191;-68
2023/01/09 05:04:55;;;;;;;0.68;0.60;;;6.50;99.90;;;;;;6121215;23;20713;-68
2023/01/09 05:07:22;;;;;;;1.25;0.65;;;6.50;99.90;;;;;;6120375;23;20230;-68
2023/01/09 05:09:49;;;;;;;1.23;0.70;;;6.50;99.90;;;;;;6124491;23;20269;-68
2023/01/09 05:12:16;;;;;;;0.77;0.50;;;6.60;99.90;;;;;;6148402;23;20256;-68
2023/01/09 05:14:43;;;;;;;1.02;0.55;;;6.60;99.90;;;;;;6120587;23;20242;-67
2023/01/09 05:17:11;;;;;;;5.03;0.68;;;6.60;99.90;;;;;;6120333;23;20647;-67
2023/01/09 05:19:39;;;;;;;1.65;0.60;;;6.60;99.90;;;;;;6138688;23;20211;-68
2023/01/09 05:22:06;;;;;;;2.15;0.60;;;6.60;99.90;;;;;;6128459;23;20229;-67
2023/01/09 05:24:34;;;;;;;1.17;0.70;;;6.60;99.90;;;;;;6120239;23;20286;-67
2023/01/09 05:27:01;;;;;;;0.60;0.50;;;6.70;99.90;;;;;;6138711;23;20329;-68
2023/01/09 05:29:28;;;;;;;0.90;0.50;;;6.60;99.90;;;;;;6128345;23;21561;-68
2023/01/09 05:31:56;;;;;;;1.25;0.70;;;6.70;99.90;;;;;;6133913;23;20676;-68
2023/01/09 05:34:23;;;;;;;1.35;0.70;;;6.70;99.90;;;;;;6125666;23;20216;-68
2023/01/09 05:36:51;;;;;;;0.98;0.70;;;6.60;99.90;;;;;;6147377;23;20186;-68
2023/01/09 05:39:19;;;;;;;3.75;1.20;;;6.70;99.90;;;;;;6134562;23;20238;-68
2023/01/09 05:41:46;;;;;;;1.65;0.77;;;6.70;99.90;;;;;;6128614;23;20669;-68
2023/01/09 05:44:13;;;;;;;1.17;0.65;;;6.70;99.90;;;;;;6119120;23;20211;-67
2023/01/09 05:46:40;;;;;;;0.80;0.80;;;6.70;99.90;;;;;;6123112;23;20192;-67
2023/01/09 05:49:07;;;;;;;2.95;1.10;;;6.70;99.90;;;;;;6137275;23;20198;-68
2023/01/09 05:51:34;;;;;;;1.52;0.80;;;6.60;99.90;;;;;;6137726;23;20225;-68
2023/01/09 05:54:04;;;;;;;1.30;0.80;;;6.60;99.90;;;;;;6120897;23;20208;-68
2023/01/09 05:56:31;;;;;;;0.90;0.75;;;6.60;99.90;;;;;;6139250;23;20199;-67
2023/01/09 05:58:58;;;;;;;1.70;0.88;;;6.60;99.90;;;;;;6128089;23;20199;-67
2023/01/09 06:01:25;;;;;;;2.05;1.10;;;6.60;99.90;;;;;;6125384;23;20428;-68
2023/01/09 06:03:52;;;;;;;3.58;1.40;;;6.50;99.90;;;;;;6118170;23;20350;-67
2023/01/09 06:06:19;;;;;;;1.42;0.93;;;6.60;99.90;;;;;;6122924;23;20186;-67
2023/01/09 06:08:46;;;;;;;1.05;0.80;;;6.50;99.90;;;;;;6137598;23;20232;-67
2023/01/09 06:11:14;;;;;;;3.03;0.90;;;6.50;99.90;;;;;;6132540;23;20270;-67
2023/01/09 06:13:41;;;;;;;0.80;0.77;;;6.50;99.90;;;;;;6148986;23;20260;-67
2023/01/09 06:16:08;;;;;;;2.00;0.90;;;6.50;99.90;;;;;;6123551;23;20517;-67
2023/01/09 06:18:35;;;;;;;1.60;1.00;;;6.40;99.90;;;;;;6140851;23;20187;-68
2023/01/09 06:21:02;;;;;;;1.08;0.90;;;6.40;99.90;;;;;;6127368;23;20717;-69
2023/01/09 06:23:29;;;;;;;2.22;0.77;;;6.40;99.90;;;;;;6116465;23;20202;-68
2023/01/09 06:25:56;;;;;;;3.45;1.30;;;6.40;99.90;;;;;;6127063;23;20198;-67
2023/01/09 06:28:24;;;;;;;4.95;1.20;;;6.40;99.90;;;;;;6130854;23;20267;-67
2023/01/09 06:30:52;;;;;;;2.38;1.17;;;6.40;99.90;;;;;;6134045;23;20175;-68
2023/01/09 06:33:19;;;;;;;3.17;1.08;;;6.40;99.90;;;;;;6133845;23;20730;-67
2023/01/09 06:35:46;;;;;;;1.60;1.00;;;6.40;99.90;;;;;;6141624;23;20259;-68
2023/01/09 06:38:13;;;;;;;4.43;0.90;;;6.40;99.90;;;;;;6131114;23;20595;-66
2023/01/09 06:40:40;;;;;;;1.20;1.00;;;6.40;99.90;;;;;;6137635;23;20252;-68
2023/01/09 06:43:07;;;;;;;2.60;0.80;;;6.30;99.90;;;;;;6140180;23;20615;-67
2023/01/09 06:45:36;;;;;;;1.77;0.80;;;6.30;99.90;;;;;;6146562;23;20270;-67
2023/01/09 06:48:03;;;;;;;1.70;0.77;;;6.30;99.90;;;;;;6137417;23;20274;-67
2023/01/09 06:50:30;;;;;;;1.15;0.70;;;6.20;99.90;;;;;;6131472;23;20203;-67
2023/01/09 06:52:57;;;;;;;2.38;0.95;;;6.20;99.90;;;;;;6135333;23;20203;-67
2023/01/09 06:55:25;;;;;;;2.85;1.35;;;6.20;99.90;;;;;;6127405;23;20186;-68
2023/01/09 06:57:52;;;;;;;4.22;1.50;;;6.10;99.90;;;;;;6119366;23;20183;-68
2023/01/09 07:00:19;;;;;;;3.33;1.00;;;6.10;99.90;;;;;;6123932;23;20285;-68
2023/01/09 07:02:48;;;;;;;2.92;1.08;;;6.10;99.90;;;;;;6137496;23;20642;-67
2023/01/09 07:05:15;;;;;;;1.80;0.90;;;6.10;99.90;;;;;;6128596;23;20205;-67
2023/01/09 07:07:42;;;;;;;2.70;1.00;;;6.10;99.90;;;;;;6130076;23;20183;-67
2023/01/09 07:10:10;;;;;;;1.90;0.80;;;6.00;99.90;;;;;;6121575;23;20225;-68
2023/01/09 07:12:37;;;;;;;3.45;1.10;;;6.00;99.90;;;;;;6120650;23;20537;-68
2023/01/09 07:15:05;;;;;;;2.47;1.00;;;6.00;99.90;;;;;;6137149;23;20183;-67
2023/01/09 07:17:32;;;;;;;1.50;0.80;;;6.00;99.90;;;;;;6128354;23;20191;-68
2023/01/09 07:20:00;;;;;;;2.35;0.82;;;6.10;99.90;;;;;;6134428;23;20183;-69
2023/01/09 07:22:28;;;;;;;1.42;0.73;;;6.10;99.90;;;;;;6124880;23;20596;-68
2023/01/09 07:24:55;;;;;;;1.92;1.00;;;5.80;99.90;;;;;;6132278;23;20546;-68
2023/01/09 07:27:22;;;;;;;1.80;1.10;;;6.20;99.90;;;;;;6129480;23;20223;-68
2023/01/09 07:29:50;;;;;;;2.22;0.90;;;6.20;99.90;;;;;;6123302;23;20207;-68
2023/01/09 07:32:17;;;;;;;2.05;0.88;;;6.30;99.90;;;;;;6123389;23;20191;-68
2023/01/09 07:34:44;;;;;;;6.47;1.52;;;6.20;99.90;;;;;;6144364;23;20733;-70
2023/01/09 07:37:12;;;;;;;1.95;0.90;;;6.20;99.90;;;;;;6145514;23;20195;-68
2023/01/09 07:39:39;;;;;;;3.80;0.82;;;6.20;99.90;;;;;;6133314;23;20213;-69
2023/01/09 07:42:06;;;;;;;1.42;0.80;;;6.20;99.90;;;;;;6134590;23;20355;-68
2023/01/09 07:44:33;;;;;;;3.53;1.60;;;6.20;99.90;;;;;;6141292;23;20535;-68
2023/01/09 07:47:00;;;;;;;1.75;0.82;;;6.20;99.90;;;;;;6130278;23;20706;-68
2023/01/09 07:49:27;;;;;;;1.90;0.90;;;6.30;99.90;;;;;;6134655;23;20673;-68
2023/01/09 07:51:55;;;;;;;7.25;1.05;;;6.30;99.90;;;;;;6133493;23;20235;-68
2023/01/09 07:54:24;;;;;;;1.88;1.10;;;6.30;99.90;;;;;;6134639;23;20290;-68
2023/01/09 07:56:51;;;;;;;3.67;1.08;;;6.30;99.90;;;;;;6143068;23;20700;-68
2023/01/09 07:59:18;;;;;;;1.73;1.00;;;6.30;99.90;;;;;;6135889;23;20195;-67
2023/01/09 08:01:45;;;;;;;2.55;1.00;;;6.30;99.90;;;;;;6116165;23;20211;-68
2023/01/09 08:04:12;;;;;;;3.92;1.20;;;6.30;99.90;;;;;;6128750;23;20706;-68
2023/01/09 08:06:39;;;;;;;4.22;1.50;;;6.30;99.90;;;;;;6124943;23;20206;-68
2023/01/09 08:09:06;;;;;;;2.63;1.30;;;6.30;99.90;;;;;;6131947;23;20194;-69
2023/01/09 08:11:35;;;;;;;1.58;1.00;;;6.30;99.90;;;;;;6116965;23;22614;-69
2023/01/09 08:14:02;;;;;;;2.30;0.90;;;6.40;99.90;;;;;;6132036;23;20691;-69
2023/01/09 08:16:29;;;;;;;1.58;1.10;;;6.40;99.90;;;;;;6120271;23;20640;-67
2023/01/09 08:18:56;;;;;;;3.25;1.10;;;6.50;99.90;;;;;;6127520;23;20187;-67
2023/01/09 08:21:23;;;;;;;2.50;1.10;;;6.50;99.90;;;;;;6129117;23;20233;-68
2023/01/09 08:23:50;;;;;;;2.13;0.93;;;6.50;99.90;;;;;;6135955;23;20260;-67
2023/01/09 08:26:18;;;;;;;2.88;0.98;;;6.60;99.90;;;;;;6132213;23;20909;-68
2023/01/09 08:28:47;;;;;;;2.88;1.10;;;6.60;99.90;;;;;;6124653;23;20187;-68
2023/01/09 08:31:14;;;;;;;1.58;0.80;;;6.60;99.90;;;;;;6117872;23;21169;-68
2023/01/09 08:33:41;;;;;;;2.72;0.80;;;6.70;99.90;;;;;;6123204;23;20676;-69
2023/01/09 08:36:09;;;;;;;3.80;1.00;;;6.70;99.90;;;;;;6124539;23;20631;-68
2023/01/09 08:38:36;;;;;;;2.50;1.30;;;6.80;99.90;;;;;;6125352;23;20254;-69
2023/01/09 08:47:04;;;;;;;1.65;0.85;;;6.90;99.90;;;;;;6141975;23;20204;-69
2023/01/09 08:49:21;;;;;;;2.45;1.33;;;7.40;99.90;;;;;;6133390;23;20596;-69
2023/01/09 08:51:48;;;;;;;1.38;1.00;;;7.60;99.90;;;;;;6120653;23;20193;-69
2023/01/09 08:54:15;;;;;;;1.30;0.80;;;7.80;99.90;;;;;;6134337;23;20656;-69
2023/01/09 08:56:42;;;;;;;3.83;0.95;;;8.00;99.90;;;;;;6140110;23;20626;-68
2023/01/09 08:59:11;;;;;;;2.58;1.05;;;8.00;99.90;;;;;;6138193;23;21222;-68
2023/01/09 09:01:38;;;;;;;1.45;0.90;;;8.00;99.90;;;;;;6117483;23;20660;-68
2023/01/09 09:04:05;;;;;;;1.65;1.00;;;8.00;99.90;;;;;;6128422;23;20240;-68
2023/01/09 09:06:32;;;;;;;2.42;1.20;;;7.90;99.90;;;;;;6123985;23;20180;-68
2023/01/09 09:09:02;;;;;;;1.13;0.95;;;7.90;99.90;;;;;;6120531;23;20205;-68
2023/01/09 09:11:30;;;;;;;0.95;0.80;;;8.20;99.90;;;;;;6134476;23;20186;-68
2023/01/09 09:13:57;;;;;;;1.83;1.00;;;8.50;99.90;;;;;;6126712;23;20211;-68
2023/01/09 09:16:26;;;;;;;2.92;0.98;;;8.70;99.90;;;;;;6131225;23;20649;-68
2023/01/09 09:18:54;;;;;;;2.13;0.80;;;8.90;99.90;;;;;;6128588;23;20178;-68
2023/01/09 09:21:21;;;;;;;1.70;0.90;;;9.10;99.90;;;;;;6138902;23;20218;-68
2023/01/09 09:23:48;;;;;;;4.05;1.65;;;9.30;99.90;;;;;;6121710;23;20210;-67
2023/01/09 09:26:15;;;;;;;2.05;0.90;;;9.50;99.90;;;;;;6137644;23;20193;-68
2023/01/09 09:28:42;;;;;;;1.63;0.80;;;9.70;99.90;;;;;;6142738;23;20191;-68
2023/01/09 09:31:09;;;;;;;2.58;1.13;;;9.90;99.90;;;;;;6136207;23;20198;-68
2023/01/09 09:33:38;;;;;;;2.38;0.90;;;10.10;99.90;;;;;;6143771;23;20547;-68
2023/01/09 09:36:05;;;;;;;2.50;0.90;;;10.10;99.90;;;;;;6135748;23;20656;-69
2023/01/09 09:38:32;;;;;;;1.35;0.60;;;10.20;99.90;;;;;;6139352;23;20183;-68
2023/01/09 09:44:46;;;;;;;4.30;0.80;;;10.40;99.90;;;;;;6134205;23;20202;-68
2023/01/09 09:47:25;;;;;;;3.35;0.90;;;10.60;99.90;;;;;;6136600;23;20189;-68
2023/01/09 09:50:06;;;;;;;2.90;0.90;;;10.20;99.90;;;;;;6125610;23;20206;-69
2023/01/09 09:52:42;;;;;;;2.80;1.25;;;9.70;99.90;;;;;;6132326;23;20318;-68
2023/01/09 09:55:17;;;;;;;2.80;0.90;;;9.50;99.90;;;;;;6123125;23;20193;-68
2023/01/09 09:57:47;;;;;;;1.48;0.80;;;9.40;99.90;;;;;;6126296;23;20186;-68
2023/01/09 10:00:17;;;;;;;2.28;0.90;;;9.20;99.90;;;;;;6127507;23;20193;-68
2023/01/09 10:02:50;;;;;;;2.25;1.10;;;9.00;99.90;;;;;;6130916;23;20928;-68
2023/01/09 10:05:24;;;;;;;4.00;1.00;;;9.00;99.90;;;;;;6126941;23;20243;-69
2023/01/09 10:07:53;;;;;;;3.13;0.90;;;9.00;99.90;;;;;;6120360;23;20202;-69
2023/01/09 10:10:28;;;;;;;1.88;0.80;;;8.70;99.90;;;;;;6125177;23;20212;-69
2023/01/09 10:12:58;;;;;;;1.58;0.90;;;8.50;99.90;;;;;;6133698;23;20289;-68
2023/01/09 10:15:38;;;;;;;2.17;0.98;;;8.40;99.90;;;;;;6127984;23;20237;-69
2023/01/09 10:18:22;;;;;;;1.23;0.75;;;8.40;99.90;;;;;;6136408;23;20229;-70
2023/01/09 10:20:56;;;;;;;2.08;0.73;;;8.40;99.90;;;;;;6123220;23;20182;-69
2023/01/09 10:23:55;;;;;;;2.13;0.88;;;8.50;99.90;;;;;;6131209;23;20283;-69
2023/01/09 10:26:28;;;;;;;2.60;1.00;;;8.30;99.90;;;;;;6135375;23;20271;-67
2023/01/09 10:29:16;;;;;;;3.10;0.80;;;8.30;99.90;;;;;;6127075;23;20188;-68
2023/01/09 10:31:57;;;;;;;1.27;0.82;;;8.30;99.90;;;;;;6131683;23;20536;-69
2023/01/09 10:34:36;;;;;;;1.20;0.70;;;8.30;99.90;;;;;;6117026;23;20544;-68
2023/01/09 10:37:10;;;;;;;3.47;1.13;;;8.30;99.90;;;;;;6127525;23;20259;-67
2023/01/09 10:39:43;;;;;;;3.42;0.93;;;8.20;99.90;;;;;;6137168;23;20226;-68
2023/01/09 10:42:18;;;;;;;4.18;1.20;;;8.20;99.90;;;;;;6133975;23;20224;-69
2023/01/09 10:44:52;;;;;;;2.28;1.05;;;8.30;99.90;;;;;;6131485;23;20197;-78
2023/01/09 10:47:25;;;;;;;4.47;1.20;;;8.30;99.90;;;;;;6129980;23;20221;-71
2023/01/09 10:49:54;;;;;;;1.80;1.25;;;8.30;99.90;;;;;;6135371;23;20272;-68
2023/01/09 10:52:28;;;;;;;2.40;0.98;;;8.30;99.90;;;;;;6131194;23;20554;-69
2023/01/09 10:54:58;;;;;;;2.40;1.23;;;8.30;99.90;;;;;;6128340;23;20185;-69
2023/01/09 10:57:38;;;;;;;4.80;1.27;;;8.40;99.90;;;;;;6138944;23;20262;-68
2023/01/09 11:00:07;;;;;;;1.75;1.00;;;8.50;99.90;;;;;;6125480;23;20186;-68
2023/01/09 11:02:35;;;;;;;3.05;1.10;;;8.60;99.90;;;;;;6126848;23;20268;-68
2023/01/09 11:05:03;;;;;;;2.33;1.00;;;8.90;99.90;;;;;;6128376;23;20248;-69
2023/01/09 11:07:36;;;;;;;2.97;1.10;;;9.20;99.90;;;;;;6130695;23;20235;-68
2023/01/09 11:10:06;;;;;;;2.08;0.85;;;9.20;99.90;;;;;;6133075;23;20732;-69
2023/01/09 11:12:36;;;;;;;1.35;0.90;;;9.10;99.90;;;;;;6116834;23;20894;-68
2023/01/09 11:15:28;;;;;;;2.55;1.08;;;9.10;99.90;;;;;;6122206;23;20646;-68
2023/01/09 11:18:18;;;;;;;2.05;0.75;;;9.00;99.90;;;;;;6136391;23;20574;-68
2023/01/09 11:20:45;;;;;;;1.80;1.00;;;8.90;99.90;;;;;;6117931;23;20244;-68
2023/01/09 11:23:32;;;;;;;4.63;1.17;;;8.80;99.90;;;;;;6131207;23;20215;-68
2023/01/09 11:26:01;;;;;;;2.97;1.20;;;8.70;99.90;;;;;;6124733;23;20194;-68
2023/01/09 11:28:29;;;;;;;3.83;1.35;;;8.60;99.90;;;;;;6132626;23;20297;-68
2023/01/09 11:30:59;;;;;;;3.10;1.10;;;8.60;99.90;;;;;;6132391;23;20213;-68
2023/01/09 11:33:28;;;;;;;2.60;1.00;;;8.50;99.90;;;;;;6130957;23;20250;-68
2023/01/09 11:36:00;;;;;;;3.47;1.42;;;8.50;99.90;;;;;;6119291;23;20258;-68
2023/01/09 11:38:27;;;;;;;3.72;1.58;;;8.50;99.90;;;;;;6130214;23;20221;-68
2023/01/09 11:40:58;;;;;;;3.58;1.00;;;8.50;99.90;;;;;;6121171;23;20194;-68
2023/01/09 11:43:32;;;;;;;2.30;1.00;;;8.60;99.90;;;;;;6136594;23;20593;-68
2023/01/09 11:46:03;;;;;;;1.50;1.00;;;8.70;99.90;;;;;;6140363;23;20187;-68
2023/01/09 11:48:36;;;;;;;4.47;1.85;;;8.90;99.90;;;;;;6141090;23;20191;-68
2023/01/09 11:51:05;;;;;;;3.25;1.00;;;9.00;99.90;;;;;;6119574;23;20593;-68
2023/01/09 11:53:49;;;;;;;2.00;1.00;;;9.20;99.90;;;;;;6131783;23;20236;-68
2023/01/09 11:56:18;;;;;;;1.98;1.00;;;9.30;99.90;;;;;;6126727;23;20187;-68
2023/01/09 11:58:45;;;;;;;2.78;1.13;;;9.30;99.90;;;;;;6120581;23;20195;-68
2023/01/09 12:01:28;;;;;;;3.35;1.17;;;9.30;99.90;;;;;;6120496;23;20606;-68
2023/01/09 12:04:14;;;;;;;2.30;1.00;;;9.20;99.90;;;;;;6109603;23;20297;-68
2023/01/09 12:06:54;;;;;;;3.78;1.00;;;9.20;99.90;;;;;;6128102;23;20194;-68
2023/01/09 12:09:28;;;;;;;2.70;1.15;;;9.10;99.90;;;;;;6137653;23;20247;-68
2023/01/09 12:12:01;;;;;;;3.17;1.58;;;9.10;99.90;;;;;;6142803;23;20237;-67
2023/01/09 12:14:43;;;;;;;3.25;1.08;;;9.00;99.90;;;;;;6119732;23;20194;-68
2023/01/09 12:17:26;;;;;;;4.13;1.77;;;9.00;99.90;;;;;;6139780;23;20270;-68
2023/01/09 12:20:19;;;;;;;2.38;0.90;;;8.90;99.90;;;;;;6140539;23;20182;-69
2023/01/09 12:22:56;;;;;;;4.47;1.20;;;9.00;99.90;;;;;;6136510;23;20263;-69
2023/01/09 12:25:35;;;;;;;1.90;0.93;;;9.00;99.90;;;;;;6135907;23;20298;-69
2023/01/09 12:28:25;;;;;;;2.20;0.90;;;8.90;99.90;;;;;;6134326;23;20630;-69
2023/01/09 12:31:06;;;;;;;2.35;0.98;;;8.60;99.90;;;;;;6123070;23;20715;-67
2023/01/09 12:33:41;;;;;;;1.65;1.10;;;8.40;99.90;;;;;;6124859;23;20279;-70
2023/01/09 12:36:15;;;;;;;1.33;0.80;;;8.20;99.90;;;;;;6127610;23;20195;-68
2023/01/09 12:38:48;;;;;;;2.70;1.13;;;8.10;99.90;;;;;;6134376;23;20181;-68
2023/01/09 12:41:47;;;;;;;1.92;1.10;;;8.00;99.90;;;;;;6127380;23;20186;-68
2023/01/09 12:44:39;;;;;;;3.17;0.95;;;7.90;99.90;;;;;;6123893;23;20187;-68
2023/01/09 12:47:26;;;;;;;5.53;1.17;;;7.80;99.90;;;;;;6127660;23;20194;-68
2023/01/09 12:50:02;;;;;;;3.38;0.98;;;7.70;99.90;;;;;;6134498;23;20280;-69
2023/01/09 12:52:34;;;;;;;3.58;0.80;;;7.60;99.90;;;;;;6120670;23;20223;-68
2023/01/09 12:55:06;;;;;;;2.53;0.80;;;7.50;99.90;;;;;;6140243;23;20187;-68
2023/01/09 12:57:37;;;;;;;2.10;0.80;;;7.50;99.90;;;;;;6127029;23;20271;-69
2023/01/09 13:00:14;;;;;;;2.25;0.90;;;7.60;99.90;;;;;;6129292;23;20669;-69
2023/01/09 13:02:48;;;;;;;2.03;0.90;;;7.80;99.90;;;;;;6095010;23;20638;-68
2023/01/09 13:05:18;;;;;;;2.75;0.85;;;7.80;99.90;;;;;;6137948;23;20207;-68
2023/01/09 13:07:49;;;;;;;2.45;1.00;;;7.90;99.90;;;;;;6132408;23;20209;-68
2023/01/09 13:10:22;;;;;;;2.33;0.80;;;7.90;99.90;;;;;;6130269;23;20191;-69
2023/01/09 13:12:51;;;;;;;4.30;1.33;;;7.90;99.90;;;;;;6139176;23;20216;-68
2023/01/09 13:15:30;;;;;;;2.75;1.15;;;7.90;99.90;;;;;;6126044;23;20189;-69
2023/01/09 13:18:04;;;;;;;1.65;0.82;;;8.00;99.90;;;;;;6123332;23;20387;-69
2023/01/09 13:20:36;;;;;;;3.10;1.45;;;8.00;99.90;;;;;;6132430;23;20189;-69
2023/01/09 13:23:05;;;;;;;1.10;0.70;;;8.00;99.90;;;;;;6140191;23;20217;-68
2023/01/09 13:25:43;;;;;;;0.98;0.60;;;8.00;99.90;;;;;;6144577;23;20532;-68
2023/01/09 13:28:18;;;;;;;2.20;0.80;;;8.10;99.90;;;;;;6131881;23;20187;-68
2023/01/09 13:31:07;;;;;;;2.90;0.80;;;8.10;99.90;;;;;;6116967;23;20186;-69